createdAt,value
2022-10-23T00:00:25.871Z,3.78
2022-10-23T00:02:54.370Z,3.88
2022-10-23T00:05:22.681Z,3.85
2022-10-23T00:07:51.576Z,3.65
2022-10-23T00:10:19.622Z,3.60
2022-10-23T00:12:47.712Z,3.53
2022-10-23T00:15:17.429Z,3.15
2022-10-23T00:17:44.859Z,3.63
2022-10-23T00:20:13.335Z,3.53
2022-10-23T00:22:40.201Z,4.05
2022-10-23T00:25:08.885Z,3.78
2022-10-23T00:27:36.125Z,3.88
2022-10-23T00:30:05.174Z,3.80
2022-10-23T00:35:03.893Z,3.45
2022-10-23T00:37:31.051Z,3.35
2022-10-23T00:39:57.921Z,3.75
2022-10-23T00:42:24.687Z,3.47
2022-10-23T00:44:51.492Z,3.58
2022-10-23T00:47:18.842Z,3.20
2022-10-23T00:49:45.640Z,3.92
2022-10-23T00:52:13.742Z,3.20
2022-10-23T00:54:43.121Z,3.45
2022-10-23T00:57:15.541Z,3.05
2022-10-23T00:59:42.723Z,3.38
2022-10-23T01:02:10.953Z,2.95
2022-10-23T01:04:38.397Z,2.92
2022-10-23T01:07:28.697Z,3.30
2022-10-23T01:10:02.880Z,3.55
2022-10-23T01:12:40.790Z,3.22
2022-10-23T01:15:19.503Z,2.60
2022-10-23T01:17:56.479Z,2.63
2022-10-23T01:20:32.783Z,2.72
2022-10-23T01:23:32.995Z,2.95
2022-10-23T01:26:27.189Z,2.85
2022-10-23T01:29:05.082Z,3.10
2022-10-23T01:31:51.805Z,2.70
2022-10-23T01:34:26.820Z,2.90
2022-10-23T01:36:54.836Z,3.42
2022-10-23T01:39:37.398Z,3.13
2022-10-23T01:42:19.445Z,2.78
2022-10-23T01:44:52.556Z,3.85
2022-10-23T01:47:26.074Z,3.35
2022-10-23T01:49:54.621Z,3.20
2022-10-23T01:52:22.388Z,3.22
2022-10-23T01:54:51.641Z,2.97
2022-10-23T01:57:20.984Z,3.55
2022-10-23T01:59:59.942Z,3.33
2022-10-23T02:02:29.042Z,3.28
2022-10-23T02:05:14.479Z,3.20
2022-10-23T02:07:41.773Z,3.33
2022-10-23T02:10:10.760Z,3.38
2022-10-23T02:12:46.673Z,3.65
2022-10-23T02:15:21.280Z,3.65
2022-10-23T02:18:09.651Z,3.40
2022-10-23T02:21:05.767Z,3.47
2022-10-23T02:24:01.361Z,3.20
2022-10-23T02:26:39.642Z,3.08
2022-10-23T02:29:12.773Z,3.40
2022-10-23T02:31:39.773Z,3.15
2022-10-23T02:34:07.015Z,3.08
2022-10-23T02:36:33.892Z,2.90
2022-10-23T02:39:01.184Z,3.28
2022-10-23T02:42:15.762Z,3.67
2022-10-23T02:44:45.273Z,3.22
2022-10-23T02:47:33.066Z,3.38
2022-10-23T02:50:00.154Z,2.92
2022-10-23T02:52:30.018Z,3.15
2022-10-23T02:55:13.344Z,2.90
2022-10-23T02:58:00.065Z,3.05
2022-10-23T03:00:31.377Z,3.22
2022-10-23T03:03:05.696Z,3.35
2022-10-23T03:05:36.720Z,3.45
2022-10-23T03:08:05.739Z,2.83
2022-10-23T03:10:32.819Z,3.13
2022-10-23T03:12:59.820Z,3.30
2022-10-23T03:15:26.960Z,3.03
2022-10-23T03:17:53.959Z,3.20
2022-10-23T03:20:20.955Z,3.17
2022-10-23T03:22:48.076Z,2.80
2022-10-23T03:25:15.371Z,2.97
2022-10-23T03:27:42.235Z,3.10
2022-10-23T03:30:10.114Z,2.70
2022-10-23T03:32:37.080Z,3.10
2022-10-23T03:35:04.434Z,3.35
2022-10-23T03:37:31.234Z,2.85
2022-10-23T03:39:58.117Z,3.20
2022-10-23T03:42:25.005Z,3.25
2022-10-23T03:44:53.250Z,3.35
2022-10-23T03:47:21.206Z,2.80
2022-10-23T03:49:48.073Z,2.97
2022-10-23T03:52:15.181Z,2.63
2022-10-23T03:54:41.984Z,3.40
2022-10-23T03:57:08.893Z,3.15
2022-10-23T03:59:36.254Z,3.17
2022-10-23T04:02:03.850Z,3.33
2022-10-23T04:04:31.049Z,2.55
2022-10-23T04:06:58.005Z,3.55
2022-10-23T04:09:24.958Z,3.00
2022-10-23T04:11:51.941Z,2.83
2022-10-23T04:14:18.944Z,3.17
2022-10-23T04:16:45.926Z,3.03
2022-10-23T04:19:13.125Z,3.00
2022-10-23T04:21:40.116Z,3.00
2022-10-23T04:24:07.539Z,2.80
2022-10-23T04:26:34.962Z,2.88
2022-10-23T04:29:02.181Z,2.83
2022-10-23T04:31:29.327Z,3.92
2022-10-23T04:33:56.245Z,2.75
2022-10-23T04:36:23.103Z,3.25
2022-10-23T04:38:50.049Z,2.83
2022-10-23T04:41:17.116Z,2.70
2022-10-23T04:43:44.163Z,2.90
2022-10-23T04:46:11.134Z,2.90
2022-10-23T04:48:38.328Z,2.92
2022-10-23T04:51:06.576Z,2.95
2022-10-23T04:53:33.684Z,3.40
2022-10-23T04:56:00.562Z,3.08
2022-10-23T04:58:29.342Z,3.22
2022-10-23T05:00:56.789Z,2.75
2022-10-23T05:03:25.126Z,2.92
2022-10-23T05:05:56.748Z,3.15
2022-10-23T05:08:24.267Z,2.40
2022-10-23T05:10:51.655Z,2.70
2022-10-23T05:13:19.977Z,3.30
2022-10-23T05:15:51.376Z,2.67
2022-10-23T05:18:32.713Z,2.78
2022-10-23T05:21:13.540Z,3.28
2022-10-23T05:23:43.075Z,3.22
2022-10-23T05:26:10.131Z,3.10
2022-10-23T05:28:37.204Z,2.70
2022-10-23T05:31:05.566Z,2.97
2022-10-23T05:33:33.534Z,3.20
2022-10-23T05:36:01.308Z,3.22
2022-10-23T05:38:32.209Z,3.15
2022-10-23T05:41:00.116Z,3.15
2022-10-23T05:43:27.441Z,3.17
2022-10-23T05:45:54.603Z,3.80
2022-10-23T05:48:33.641Z,3.30
2022-10-23T05:51:06.554Z,3.10
2022-10-23T05:53:36.106Z,3.20
2022-10-23T05:56:09.656Z,3.13
2022-10-23T05:58:36.762Z,3.47
2022-10-23T06:01:13.189Z,3.17
2022-10-23T06:03:40.519Z,2.55
2022-10-23T06:06:07.975Z,2.72
2022-10-23T06:08:35.670Z,2.63
2022-10-23T06:11:10.189Z,2.60
2022-10-23T06:13:37.712Z,2.40
2022-10-23T06:16:13.015Z,2.50
2022-10-23T06:18:40.151Z,2.80
2022-10-23T06:21:07.942Z,2.67
2022-10-23T06:23:36.731Z,3.00
2022-10-23T06:26:04.542Z,3.33
2022-10-23T06:28:32.387Z,2.35
2022-10-23T06:30:59.465Z,2.63
2022-10-23T06:33:26.395Z,2.80
2022-10-23T06:35:56.633Z,2.50
2022-10-23T06:38:23.782Z,2.50
2022-10-23T06:40:55.200Z,3.20
2022-10-23T06:43:22.482Z,2.72
2022-10-23T06:45:49.727Z,2.60
2022-10-23T06:48:16.553Z,2.90
2022-10-23T06:50:43.648Z,2.38
2022-10-23T06:53:12.566Z,2.47
2022-10-23T06:55:40.320Z,2.85
2022-10-23T06:58:10.668Z,3.58
2022-10-23T07:00:40.911Z,2.88
2022-10-23T07:03:09.157Z,2.58
2022-10-23T07:05:36.435Z,2.83
2022-10-23T07:08:05.395Z,2.83
2022-10-23T07:10:32.169Z,2.47
2022-10-23T07:13:01.126Z,2.22
2022-10-23T07:15:28.592Z,2.50
2022-10-23T07:17:56.026Z,2.45
2022-10-23T07:20:22.928Z,2.38
2022-10-23T07:22:54.676Z,2.72
2022-10-23T07:25:26.182Z,2.72
2022-10-23T07:27:55.876Z,3.05
2022-10-23T07:30:22.928Z,3.30
2022-10-23T07:32:50.092Z,3.08
2022-10-23T07:35:17.802Z,3.38
2022-10-23T07:37:44.967Z,3.00
2022-10-23T07:40:12.418Z,3.15
2022-10-23T07:42:39.427Z,3.75
2022-10-23T07:45:08.828Z,3.67
2022-10-23T07:47:35.826Z,3.17
2022-10-23T07:50:02.820Z,3.50
2022-10-23T07:52:32.127Z,3.42
2022-10-23T07:55:02.230Z,3.67
2022-10-23T07:57:29.173Z,3.20
2022-10-23T07:59:56.238Z,3.28
2022-10-23T08:02:23.306Z,3.05
2022-10-23T08:04:50.526Z,3.33
2022-10-23T08:07:17.473Z,3.60
2022-10-23T08:09:44.507Z,3.55
2022-10-23T08:12:11.413Z,3.03
2022-10-23T08:14:38.389Z,3.08
2022-10-23T08:17:05.727Z,3.70
2022-10-23T08:19:32.746Z,3.28
2022-10-23T08:21:59.570Z,3.65
2022-10-23T08:24:26.899Z,3.72
2022-10-23T08:26:54.028Z,3.63
2022-10-23T08:29:21.446Z,3.50
2022-10-23T08:31:48.454Z,3.70
2022-10-23T08:34:15.697Z,3.45
2022-10-23T08:36:43.076Z,3.10
2022-10-23T08:39:09.963Z,3.40
2022-10-23T08:41:40.421Z,2.85
2022-10-23T08:44:18.285Z,3.00
2022-10-23T08:46:59.407Z,2.75
2022-10-23T08:49:50.614Z,3.10
2022-10-23T08:52:41.579Z,2.95
2022-10-23T08:55:36.619Z,3.25
2022-10-23T08:58:23.645Z,3.80
2022-10-23T09:00:51.656Z,3.45
2022-10-23T09:03:19.529Z,3.25
2022-10-23T09:06:08.875Z,3.25
2022-10-23T09:09:04.198Z,3.10
2022-10-23T09:11:30.927Z,3.33
2022-10-23T09:14:26.871Z,3.70
2022-10-23T09:17:02.656Z,2.72
2022-10-23T09:19:31.333Z,3.92
2022-10-23T09:21:58.639Z,3.38
2022-10-23T09:24:31.632Z,3.60
2022-10-23T09:27:00.514Z,3.42
2022-10-23T09:29:36.174Z,3.20
2022-10-23T09:32:06.292Z,3.25
2022-10-23T09:34:34.769Z,3.47
2022-10-23T09:37:21.658Z,3.55
2022-10-23T09:39:48.789Z,3.03
2022-10-23T09:42:33.871Z,3.40
2022-10-23T09:45:01.829Z,3.70
2022-10-23T09:47:28.839Z,3.53
2022-10-23T09:49:57.391Z,3.38
2022-10-23T09:52:37.449Z,3.63
2022-10-23T09:55:20.632Z,3.60
2022-10-23T09:57:48.052Z,3.70
2022-10-23T10:00:17.729Z,3.20
2022-10-23T10:03:02.538Z,3.55
2022-10-23T10:05:32.098Z,2.90
2022-10-23T10:08:07.408Z,3.38
2022-10-23T10:10:40.908Z,3.80
2022-10-23T10:13:48.445Z,3.38
2022-10-23T10:16:48.013Z,2.90
2022-10-23T10:19:30.572Z,3.35
2022-10-23T10:22:22.228Z,3.38
2022-10-23T10:24:58.762Z,2.58
2022-10-23T10:28:00.325Z,2.47
2022-10-23T10:30:57.957Z,3.13
2022-10-23T10:33:56.825Z,2.90
2022-10-23T10:36:38.093Z,2.90
2022-10-23T10:39:39.464Z,2.97
2022-10-23T10:42:45.483Z,3.00
2022-10-23T10:45:20.023Z,3.13
2022-10-23T10:48:02.807Z,3.55
2022-10-23T10:50:51.420Z,2.85
2022-10-23T10:53:40.478Z,2.60
2022-10-23T10:56:12.628Z,2.90
2022-10-23T10:58:47.256Z,3.10
2022-10-23T11:01:30.746Z,3.08
2022-10-23T11:04:02.596Z,2.90
2022-10-23T11:06:32.299Z,3.00
2022-10-23T11:09:20.424Z,2.78
2022-10-23T11:11:49.031Z,2.65
2022-10-23T11:14:22.820Z,2.70
2022-10-23T11:17:01.631Z,3.03
2022-10-23T11:19:36.171Z,2.90
2022-10-23T11:22:07.247Z,2.40
2022-10-23T11:24:58.100Z,3.05
2022-10-23T11:27:49.628Z,2.55
2022-10-23T11:30:34.330Z,2.60
2022-10-23T11:33:12.908Z,2.47
2022-10-23T11:35:42.870Z,2.92
2022-10-23T11:38:17.174Z,2.55
2022-10-23T11:40:53.737Z,2.63
2022-10-23T11:43:33.667Z,2.80
2022-10-23T11:46:13.556Z,2.40
2022-10-23T11:48:43.231Z,2.85
2022-10-23T11:51:40.657Z,2.70
2022-10-23T11:54:24.950Z,2.55
2022-10-23T11:57:14.745Z,2.70
2022-10-23T11:59:54.655Z,2.78
2022-10-23T12:02:38.923Z,2.63
2022-10-23T12:05:34.930Z,2.50
2022-10-23T12:08:04.501Z,2.17
2022-10-23T12:10:37.338Z,2.10
2022-10-23T12:13:06.627Z,2.30
2022-10-23T12:15:36.773Z,2.63
2022-10-23T12:18:17.716Z,2.70
2022-10-23T12:20:50.661Z,2.10
2022-10-23T12:24:15.178Z,2.70
2022-10-23T12:26:54.596Z,2.33
2022-10-23T12:29:55.371Z,2.03
2022-10-23T12:32:44.068Z,2.15
2022-10-23T12:35:38.261Z,2.80
2022-10-23T12:38:15.888Z,2.40
2022-10-23T12:40:55.773Z,2.20
2022-10-23T12:43:34.840Z,1.83
2022-10-23T12:46:29.129Z,2.17
2022-10-23T12:48:57.265Z,2.53
2022-10-23T12:51:27.424Z,1.90
2022-10-23T12:53:54.929Z,1.90
2022-10-23T12:56:22.765Z,1.90
2022-10-23T12:58:53.686Z,2.10
2022-10-23T13:01:29.486Z,2.38
2022-10-23T13:04:26.915Z,1.88
2022-10-23T13:06:56.882Z,2.35
2022-10-23T13:09:28.187Z,2.50
2022-10-23T13:11:56.083Z,2.20
2022-10-23T13:14:44.489Z,2.05
2022-10-23T13:17:12.199Z,2.17
2022-10-23T13:19:39.238Z,1.88
2022-10-23T13:22:21.218Z,2.63
2022-10-23T13:24:48.659Z,2.10
2022-10-23T13:27:33.116Z,1.70
2022-10-23T13:30:00.378Z,2.10
2022-10-23T13:32:30.146Z,1.88
2022-10-23T13:35:10.237Z,1.67
2022-10-23T13:40:28.046Z,1.92
2022-10-23T13:42:57.268Z,1.90
2022-10-23T13:45:25.912Z,1.98
2022-10-23T13:47:53.607Z,2.00
2022-10-23T13:50:20.732Z,2.15
2022-10-23T13:52:47.670Z,2.10
2022-10-23T13:55:25.472Z,2.33
2022-10-23T13:57:52.888Z,2.58
2022-10-23T14:00:19.765Z,2.33
2022-10-23T14:02:46.704Z,2.10
2022-10-23T14:05:14.135Z,2.38
2022-10-23T14:07:41.000Z,2.75
2022-10-23T14:10:08.322Z,2.40
2022-10-23T14:12:43.044Z,2.63
2022-10-23T14:15:11.513Z,2.88
2022-10-23T14:17:38.643Z,2.30
2022-10-23T14:20:06.457Z,2.10
2022-10-23T14:22:33.666Z,2.25
2022-10-23T14:25:00.618Z,2.40
2022-10-23T14:27:27.521Z,2.10
2022-10-23T14:29:54.424Z,2.30
2022-10-23T14:32:21.571Z,2.25
2022-10-23T14:34:54.884Z,1.92
2022-10-23T14:37:22.155Z,2.00
2022-10-23T14:39:50.369Z,1.92
2022-10-23T14:42:18.152Z,2.10
2022-10-23T14:44:45.336Z,2.47
2022-10-23T14:47:12.312Z,2.00
2022-10-23T14:49:40.497Z,2.20
2022-10-23T14:52:08.392Z,2.28
2022-10-23T14:54:36.538Z,2.78
2022-10-23T14:57:04.322Z,2.03
2022-10-23T14:59:31.458Z,2.42
2022-10-23T15:01:59.208Z,2.50
2022-10-23T15:04:26.230Z,2.25
2022-10-23T15:06:53.321Z,1.90
2022-10-23T15:09:20.371Z,2.05
2022-10-23T15:11:47.780Z,2.25
2022-10-23T15:14:14.956Z,2.22
2022-10-23T15:16:42.129Z,2.53
2022-10-23T15:19:17.367Z,2.22
2022-10-23T15:21:46.844Z,2.25
2022-10-23T15:24:14.185Z,2.40
2022-10-23T15:26:44.047Z,2.28
2022-10-23T15:29:12.220Z,2.58
2022-10-23T15:31:40.875Z,2.95
2022-10-23T15:34:14.263Z,2.92
2022-10-23T15:36:42.646Z,2.50
2022-10-23T15:39:11.089Z,2.85
2022-10-23T15:41:41.060Z,2.10
2022-10-23T15:44:09.806Z,2.38
2022-10-23T15:46:37.280Z,2.33
2022-10-23T15:49:04.997Z,2.53
2022-10-23T15:51:32.080Z,2.85
2022-10-23T15:53:58.935Z,2.83
2022-10-23T15:56:26.392Z,2.50
2022-10-23T15:58:53.369Z,2.38
2022-10-23T16:01:21.153Z,2.95
2022-10-23T16:03:50.190Z,2.75
2022-10-23T16:06:18.145Z,2.88
2022-10-23T16:08:45.238Z,2.63
2022-10-23T16:11:31.351Z,3.00
2022-10-23T16:13:59.371Z,2.85
2022-10-23T16:16:28.327Z,2.40
2022-10-23T16:18:55.660Z,2.67
2022-10-23T16:21:27.987Z,2.80
2022-10-23T16:23:57.190Z,3.20
2022-10-23T16:26:24.815Z,3.00
2022-10-23T16:28:56.697Z,2.90
2022-10-23T16:31:24.870Z,2.53
2022-10-23T16:33:52.852Z,3.28
2022-10-23T16:36:21.436Z,3.00
2022-10-23T16:38:48.220Z,3.33
2022-10-23T16:41:15.611Z,3.10
2022-10-23T16:43:42.745Z,3.40
2022-10-23T16:46:18.712Z,3.20
2022-10-23T16:48:45.808Z,2.97
2022-10-23T16:51:15.224Z,3.10
2022-10-23T16:53:42.705Z,3.20
2022-10-23T16:56:11.916Z,3.17
2022-10-23T16:58:41.935Z,3.30
2022-10-23T17:01:12.749Z,3.78
2022-10-23T17:03:43.026Z,3.15
2022-10-23T17:06:12.971Z,3.70
2022-10-23T17:08:40.737Z,3.38
2022-10-23T17:11:16.882Z,3.17
2022-10-23T17:13:46.837Z,3.53
2022-10-23T17:16:13.587Z,4.32
2022-10-23T17:18:43.915Z,3.30
2022-10-23T17:21:12.857Z,3.28
2022-10-23T17:23:40.552Z,2.50
2022-10-23T17:26:12.781Z,2.15
2022-10-23T17:28:42.271Z,2.65
2022-10-23T17:31:21.679Z,3.40
2022-10-23T17:33:51.902Z,3.47
2022-10-23T17:36:20.698Z,6.10
2022-10-23T17:38:48.191Z,2.50
2022-10-23T17:41:17.320Z,2.33
2022-10-23T17:43:44.612Z,2.25
2022-10-23T17:46:13.378Z,2.20
2022-10-23T17:48:43.406Z,2.15
2022-10-23T17:51:19.648Z,1.80
2022-10-23T17:53:48.935Z,2.20
2022-10-23T17:56:22.662Z,1.90
2022-10-23T17:58:51.276Z,2.10
2022-10-23T18:01:21.428Z,2.28
2022-10-23T18:03:48.815Z,3.00
2022-10-23T18:06:19.112Z,2.47
2022-10-23T18:08:46.713Z,1.80
2022-10-23T18:11:22.730Z,1.95
2022-10-23T18:13:50.452Z,1.67
2022-10-23T18:16:17.886Z,2.10
2022-10-23T18:18:49.206Z,1.90
2022-10-23T18:21:16.902Z,2.35
2022-10-23T18:23:44.754Z,2.13
2022-10-23T18:26:23.597Z,1.48
2022-10-23T18:28:52.387Z,1.45
2022-10-23T18:31:20.776Z,1.30
2022-10-23T18:33:48.060Z,1.42
2022-10-23T18:36:21.741Z,1.40
2022-10-23T18:38:49.473Z,2.03
2022-10-23T18:41:17.926Z,1.80
2022-10-23T18:43:45.636Z,2.03
2022-10-23T18:46:14.125Z,1.55
2022-10-23T18:48:42.210Z,1.90
2022-10-23T18:51:25.077Z,2.85
2022-10-23T18:53:52.540Z,2.63
2022-10-23T18:56:23.273Z,2.33
2022-10-23T18:58:59.396Z,1.98
2022-10-23T19:01:30.075Z,2.85
2022-10-23T19:04:00.061Z,1.85
2022-10-23T19:06:27.555Z,2.10
2022-10-23T19:08:54.496Z,1.92
2022-10-23T19:11:23.817Z,1.65
2022-10-23T19:13:51.042Z,1.58
2022-10-23T19:16:32.603Z,2.10
2022-10-23T19:19:06.463Z,1.98
2022-10-23T19:21:38.353Z,1.63
2022-10-23T19:24:10.644Z,2.28
2022-10-23T19:26:39.785Z,2.28
2022-10-23T19:29:09.963Z,1.50
2022-10-23T19:31:37.320Z,1.92
2022-10-23T19:34:04.147Z,1.65
2022-10-23T19:36:31.909Z,2.00
2022-10-23T19:38:59.278Z,1.40
2022-10-23T19:41:26.085Z,1.45
2022-10-23T19:43:52.846Z,1.85
2022-10-23T19:46:19.990Z,1.27
2022-10-23T19:48:46.851Z,1.80
2022-10-23T19:51:13.701Z,1.63
2022-10-23T19:53:42.814Z,1.98
2022-10-23T19:56:12.039Z,1.80
2022-10-23T19:58:39.427Z,1.60
2022-10-23T20:01:12.922Z,1.77
2022-10-23T20:03:42.015Z,1.48
2022-10-23T20:06:11.061Z,1.83
2022-10-23T20:08:38.580Z,1.77
2022-10-23T20:11:06.107Z,2.00
2022-10-23T20:13:36.036Z,1.90
2022-10-23T20:16:02.909Z,2.03
2022-10-23T20:18:29.871Z,1.80
2022-10-23T20:20:56.725Z,1.80
2022-10-23T20:23:23.638Z,1.60
2022-10-23T20:25:50.875Z,1.85
2022-10-23T20:28:17.874Z,1.90
2022-10-23T20:30:46.038Z,2.38
2022-10-23T20:33:12.921Z,1.80
2022-10-23T20:35:42.057Z,1.75
2022-10-23T20:38:10.793Z,1.80
2022-10-23T20:40:38.074Z,1.38
2022-10-23T20:43:10.069Z,1.60
2022-10-23T20:45:37.005Z,1.38
2022-10-23T20:48:04.025Z,1.55
2022-10-23T20:50:30.805Z,1.63
2022-10-23T20:52:57.852Z,1.77
2022-10-23T20:55:25.125Z,1.92
2022-10-23T20:57:52.959Z,1.60
2022-10-23T21:00:20.130Z,1.63
2022-10-23T21:02:49.779Z,1.35
2022-10-23T21:05:19.726Z,1.40
2022-10-23T21:07:46.662Z,1.08
2022-10-23T21:10:13.780Z,1.70
2022-10-23T21:12:40.937Z,1.00
2022-10-23T21:15:08.881Z,1.35
2022-10-23T21:17:38.860Z,1.30
2022-10-23T21:20:06.523Z,1.33
2022-10-23T21:22:33.256Z,1.25
2022-10-23T21:25:01.698Z,1.10
2022-10-23T21:27:28.525Z,1.23
2022-10-23T21:29:55.356Z,1.00
2022-10-23T21:32:22.319Z,1.17
2022-10-23T21:34:49.569Z,1.38
2022-10-23T21:37:16.313Z,1.02
2022-10-23T21:39:44.397Z,1.58
2022-10-23T21:42:13.137Z,1.30
2022-10-23T21:44:40.357Z,1.40
2022-10-23T21:47:07.425Z,1.48
2022-10-23T21:49:34.627Z,1.25
2022-10-23T21:52:01.541Z,1.50
2022-10-23T21:54:28.389Z,1.20
2022-10-23T21:56:55.293Z,1.65
2022-10-23T21:59:25.877Z,1.52
2022-10-23T22:01:54.774Z,1.70
2022-10-23T22:04:22.385Z,1.77
2022-10-23T22:06:49.907Z,2.28
2022-10-23T22:09:20.042Z,1.67
2022-10-23T22:11:48.691Z,2.45
2022-10-23T22:14:15.818Z,1.92
2022-10-23T22:16:43.091Z,2.45
2022-10-23T22:19:13.016Z,2.53
2022-10-23T22:21:40.714Z,2.15
2022-10-23T22:24:08.082Z,1.98
2022-10-23T22:26:44.270Z,2.20
2022-10-23T22:29:13.619Z,2.10
2022-10-23T22:31:44.184Z,2.20
2022-10-23T22:34:25.393Z,2.33
2022-10-23T22:36:54.640Z,1.55
2022-10-23T22:39:22.150Z,1.58
2022-10-23T22:41:49.652Z,1.88
2022-10-23T22:44:16.704Z,1.98
2022-10-23T22:46:44.598Z,1.90
2022-10-23T22:49:11.466Z,1.90
2022-10-23T22:51:39.870Z,1.60
2022-10-23T22:54:07.166Z,1.98
2022-10-23T22:56:34.526Z,2.10
2022-10-23T22:59:01.538Z,1.55
2022-10-23T23:01:28.763Z,1.60
2022-10-23T23:04:04.298Z,1.50
2022-10-23T23:06:45.402Z,2.20
2022-10-23T23:09:17.036Z,1.30
2022-10-23T23:11:51.235Z,1.75
2022-10-23T23:14:23.099Z,1.27
2022-10-23T23:16:52.648Z,1.20
2022-10-23T23:19:19.884Z,1.55
2022-10-23T23:21:46.696Z,1.30
2022-10-23T23:24:13.544Z,1.50
2022-10-23T23:26:40.720Z,1.55
2022-10-23T23:29:07.640Z,1.50
2022-10-23T23:31:34.521Z,1.60
2022-10-23T23:34:01.514Z,1.23
2022-10-23T23:36:28.754Z,1.60
2022-10-23T23:38:57.331Z,1.35
2022-10-23T23:41:25.935Z,1.35
2022-10-23T23:43:55.476Z,1.42
2022-10-23T23:46:22.761Z,1.20
2022-10-23T23:48:50.175Z,1.70
2022-10-23T23:51:19.406Z,1.60
2022-10-23T23:53:47.424Z,1.80
2022-10-23T23:56:14.471Z,2.05
2022-10-23T23:58:41.654Z,1.90
